Time;durP1;ratioP1;P1;durP2;ratioP2;P2;SDS_P1;SDS_P2;PMS_P1;PMS_P2;Temp;Humidity;BMP_temperature;BMP_pressure;BME280_temperature;BME280_humidity;BME280_pressure;Samples;Min_cycle;Max_cycle;Signal;HPM_P1;HPM_P2
2021/04/04 00:00:28;;;;;;;33.00;18.42;;;;;;;2.44;57.26;99264.33;1687564;84;21690;-59
2021/04/04 00:02:56;;;;;;;33.38;20.10;;;;;;;2.43;57.35;99273.43;1654380;84;21777;-59
2021/04/04 00:05:24;;;;;;;35.45;18.25;;;;;;;2.43;57.66;99267.83;1681685;83;22188;-59
2021/04/04 00:07:53;;;;;;;35.43;20.00;;;;;;;2.47;57.42;99269.94;1677975;83;21685;-59
2021/04/04 00:10:20;;;;;;;29.92;18.30;;;;;;;2.47;57.64;99265.59;1664162;84;21621;-59
2021/04/04 00:12:48;;;;;;;32.03;19.15;;;;;;;2.49;57.84;99261.23;1642366;85;21747;-59
2021/04/04 00:15:17;;;;;;;34.10;19.50;;;;;;;2.54;57.91;99258.55;1645230;86;21672;-60
2021/04/04 00:17:46;;;;;;;32.63;19.98;;;;;;;2.58;57.97;99258.94;1646491;86;21981;-59
2021/04/04 00:20:15;;;;;;;35.52;19.42;;;;;;;2.58;58.45;99258.94;1637672;85;21621;-60
2021/04/04 00:22:44;;;;;;;36.53;20.60;;;;;;;2.58;58.16;99262.83;1633176;85;21596;-59
2021/04/04 00:25:13;;;;;;;38.55;19.70;;;;;;;2.61;57.67;99267.11;1628810;86;21673;-59
2021/04/04 00:28:03;;;;;;;42.35;22.20;;;;;;;2.63;57.67;99264.04;1649314;85;21626;-61
2021/04/04 00:30:30;;;;;;;38.78;21.95;;;;;;;2.62;57.52;99263.19;1611393;88;21604;-60
2021/04/04 00:32:58;;;;;;;39.45;20.30;;;;;;;2.61;57.37;99261.46;1648181;85;21238;-59
2021/04/04 00:35:26;;;;;;;37.45;21.33;;;;;;;2.61;57.50;99261.91;1647474;85;21245;-59
2021/04/04 00:37:54;;;;;;;32.05;19.42;;;;;;;2.59;57.58;99260.63;1643700;85;21277;-59
2021/04/04 00:40:31;;;;;;;40.17;20.70;;;;;;;2.57;57.56;99259.80;1652741;85;21721;-59
2021/04/04 00:42:59;;;;;;;33.90;18.90;;;;;;;2.47;57.54;99259.55;1644751;85;22085;-59
2021/04/04 00:45:31;;;;;;;35.25;19.20;;;;;;;2.41;57.83;99259.63;1645200;86;21719;-59
2021/04/04 00:47:59;;;;;;;33.83;18.82;;;;;;;2.41;57.80;99257.03;1644276;86;21640;-59
2021/04/04 00:50:31;;;;;;;34.08;18.92;;;;;;;2.42;57.58;99258.76;1650126;85;21241;-59
2021/04/04 00:52:59;;;;;;;32.85;17.87;;;;;;;2.42;57.83;99255.72;1645972;85;21703;-59
2021/04/04 00:55:28;;;;;;;32.30;18.07;;;;;;;2.44;57.75;99263.03;1643469;85;22184;-61
2021/04/04 00:57:56;;;;;;;29.27;17.95;;;;;;;2.43;57.58;99263.05;1641678;86;21268;-59
2021/04/04 01:00:26;;;;;;;34.98;17.80;;;;;;;2.38;57.59;99265.73;1641640;86;21326;-59
2021/04/04 01:02:55;;;;;;;34.25;16.93;;;;;;;2.37;57.67;99267.05;1643520;85;21709;-59
2021/04/04 01:05:41;;;;;;;33.90;18.55;;;;;;;2.26;57.85;99270.67;1641553;85;21629;-60
2021/04/04 01:08:08;;;;;;;31.33;18.87;;;;;;;1.99;58.30;99279.70;1641880;86;22221;-60
2021/04/04 01:10:39;;;;;;;39.85;21.60;;;;;;;1.86;58.89;99275.11;1641771;86;21710;-60
2021/04/04 01:13:24;;;;;;;44.88;24.65;;;;;;;1.87;59.15;99284.61;1641248;85;21641;-62
2021/04/04 01:16:14;;;;;;;52.70;28.73;;;;;;;1.93;59.55;99277.19;1641860;86;21170;-60
2021/04/04 01:18:54;;;;;;;64.20;33.95;;;;;;;1.97;59.85;99283.20;1641385;86;21684;-60
2021/04/04 01:21:29;;;;;;;75.50;37.05;;;;;;;2.00;60.09;99285.31;1640670;86;22097;-60
2021/04/04 01:24:41;;;;;;;69.05;36.80;;;;;;;2.05;60.16;99286.09;1647946;85;22342;-60
2021/04/04 01:27:45;;;;;;;60.60;32.75;;;;;;;2.06;60.45;99286.97;1636186;86;21180;-59
2021/04/04 01:30:14;;;;;;;67.20;32.28;;;;;;;2.07;60.88;99286.95;1665449;85;21631;-60
2021/04/04 01:32:42;;;;;;;61.73;32.28;;;;;;;2.08;60.96;99282.61;1648092;83;21635;-60
2021/04/04 01:35:11;;;;;;;66.85;32.85;;;;;;;2.14;61.14;99288.55;1679637;83;22086;-60
2021/04/04 01:37:40;;;;;;;67.00;33.23;;;;;;;2.17;61.22;99281.60;1671278;85;21599;-62
2021/04/04 01:40:09;;;;;;;60.50;32.60;;;;;;;2.21;61.13;99285.89;1671048;84;21587;-60
2021/04/04 01:42:37;;;;;;;62.38;32.42;;;;;;;2.24;61.21;99285.41;1646008;85;21587;-61
2021/04/04 01:45:07;;;;;;;61.60;31.68;;;;;;;2.30;61.18;99282.72;1675367;83;21797;-59
2021/04/04 01:47:36;;;;;;;62.60;32.25;;;;;;;2.35;61.05;99277.45;1668808;84;21993;-60
2021/04/04 01:50:08;;;;;;;57.98;29.42;;;;;;;2.34;61.10;99280.48;1671303;84;21607;-60
2021/04/04 01:52:36;;;;;;;51.10;27.25;;;;;;;2.38;61.22;99277.86;1671242;84;21599;-61
2021/04/04 01:55:06;;;;;;;45.78;25.62;;;;;;;2.44;61.12;99282.95;1659553;83;21603;-60
2021/04/04 01:57:34;;;;;;;49.90;25.50;;;;;;;2.47;61.05;99282.46;1673154;83;21659;-61
2021/04/04 02:00:11;;;;;;;44.73;24.45;;;;;;;2.40;61.37;99281.28;1665970;84;21616;-61
2021/04/04 02:02:38;;;;;;;42.88;24.87;;;;;;;2.37;61.53;99287.81;1668474;83;21450;-61
2021/04/04 02:05:08;;;;;;;51.80;28.57;;;;;;;2.37;61.73;99289.10;1676252;83;21616;-61
2021/04/04 02:07:43;;;;;;;60.30;30.62;;;;;;;2.36;61.89;99293.89;1671311;85;21599;-61
2021/04/04 02:10:22;;;;;;;62.83;31.97;;;;;;;2.33;62.34;99293.03;1671405;85;21607;-61
2021/04/04 02:12:52;;;;;;;59.58;33.15;;;;;;;2.27;62.55;99292.28;1671197;83;21957;-60
2021/04/04 02:15:21;;;;;;;65.80;34.23;;;;;;;2.25;62.67;99291.45;1674325;83;21633;-60
2021/04/04 02:17:51;;;;;;;68.65;34.35;;;;;;;2.19;62.96;99296.73;1671142;85;21689;-62
2021/04/04 02:20:21;;;;;;;68.30;33.40;;;;;;;2.11;63.34;99292.92;1671019;85;21664;-60
2021/04/04 02:22:49;;;;;;;63.38;34.33;;;;;;;2.07;63.57;99289.55;1671261;84;21604;-60
2021/04/04 02:25:17;;;;;;;60.95;33.10;;;;;;;2.11;63.79;99287.73;1672432;83;22475;-60
2021/04/04 02:27:46;;;;;;;71.42;34.63;;;;;;;2.16;63.73;99284.64;1670202;83;21638;-60
2021/04/04 02:30:18;;;;;;;63.48;31.48;;;;;;;2.11;63.82;99282.13;1667225;85;21772;-60
2021/04/04 02:32:53;;;;;;;50.85;24.47;;;;;;;2.06;64.01;99281.78;1666425;85;21580;-60
2021/04/04 02:35:33;;;;;;;41.55;21.57;;;;;;;2.07;64.27;99283.06;1642630;85;21576;-59
2021/04/04 02:38:08;;;;;;;40.10;19.20;;;;;;;2.13;64.39;99275.63;1669567;83;22148;-59
2021/04/04 02:40:36;;;;;;;36.90;20.30;;;;;;;2.22;64.42;99283.70;1666663;84;21721;-60
2021/04/04 02:43:04;;;;;;;;;;;;;;;2.25;64.10;99279.33;1668426;85;21266;-59
2021/04/04 02:45:33;;;;;;;48.08;25.65;;;;;;;2.27;64.49;99284.05;1666313;85;20727;-59
2021/04/04 02:48:04;;;;;;;50.30;26.87;;;;;;;2.26;63.85;99284.95;1625714;85;21789;-60
2021/04/04 02:50:32;;;;;;;50.63;26.87;;;;;;;2.22;63.86;99291.03;1666282;85;22130;-60
2021/04/04 02:53:01;;;;;;;57.40;27.58;;;;;;;2.23;63.87;99290.17;1660961;84;21238;-63
2021/04/04 02:55:35;;;;;;;55.20;27.58;;;;;;;2.28;63.71;99289.67;1666078;84;21692;-61
2021/04/04 02:58:09;;;;;;;49.08;26.60;;;;;;;2.32;63.54;99296.52;1627851;86;21697;-60
2021/04/04 03:00:40;;;;;;;50.88;26.45;;;;;;;2.33;63.56;99293.48;1618489;86;21600;-60
2021/04/04 03:03:09;;;;;;;48.92;26.50;;;;;;;2.34;63.61;99293.46;1666908;84;23128;-61
2021/04/04 03:05:37;;;;;;;44.08;24.98;;;;;;;2.37;63.72;99290.40;1630147;85;21679;-61
2021/04/04 03:08:06;;;;;;;44.50;22.52;;;;;;;2.41;63.94;99290.34;1671709;83;27273;-61
2021/04/04 03:10:34;;;;;;;39.00;19.82;;;;;;;2.44;64.07;99289.44;1666034;83;21559;-61
2021/04/04 03:13:03;;;;;;;37.83;20.40;;;;;;;2.46;64.33;99291.56;1641724;85;21564;-62
2021/04/04 03:15:31;;;;;;;41.70;20.60;;;;;;;2.50;64.32;99287.58;1666409;84;22036;-61
2021/04/04 03:17:59;;;;;;;;;;;;;;;2.54;64.17;99285.80;1632509;85;21601;-61
2021/04/04 03:20:26;;;;;;;44.83;21.82;;;;;;;2.52;64.39;99288.86;1667004;85;25724;-60
2021/04/04 03:22:54;;;;;;;48.13;24.23;;;;;;;2.50;63.95;99288.88;1670990;83;21166;-61
2021/04/04 03:25:23;;;;;;;47.30;25.62;;;;;;;2.51;63.72;99292.36;1660344;85;21632;-60
2021/04/04 03:27:51;;;;;;;;;;;;;;;2.48;63.72;99291.09;1669117;84;22490;-60
2021/04/04 03:33:06;;;;;;;;;;;;;;;2.41;63.87;99298.13;1653753;85;21595;-60
2021/04/04 03:35:33;;;;;;;36.40;20.52;;;;;;;2.41;64.20;99297.25;1643972;86;20605;-61
2021/04/04 03:38:03;;;;;;;35.48;19.42;;;;;;;2.40;63.96;99299.00;1639621;86;21641;-60
2021/04/04 03:40:31;;;;;;;38.05;19.65;;;;;;;2.39;64.21;99299.87;1643761;86;21889;-60
2021/04/04 03:43:01;;;;;;;39.70;21.27;;;;;;;2.42;64.09;99305.02;1646275;85;21631;-60
2021/04/04 03:45:29;;;;;;;38.78;22.35;;;;;;;2.37;64.08;99304.22;1619689;86;21797;-60
2021/04/04 03:47:58;;;;;;;45.50;22.95;;;;;;;2.31;64.45;99311.66;1642933;86;21892;-60
2021/04/04 03:50:26;;;;;;;44.77;24.07;;;;;;;2.29;64.63;99314.72;1619193;86;21571;-60
2021/04/04 03:52:53;;;;;;;52.25;24.60;;;;;;;2.28;64.71;99319.50;1643194;85;25857;-60
2021/04/04 03:55:23;;;;;;;41.40;24.57;;;;;;;2.11;64.88;99317.56;1644333;85;21679;-58
2021/04/04 03:57:51;;;;;;;43.60;22.62;;;;;;;2.02;65.25;99321.16;1643727;86;21178;-58
2021/04/04 04:00:22;;;;;;;45.73;24.75;;;;;;;2.00;65.56;99325.51;1643712;86;21678;-58
2021/04/04 04:02:50;;;;;;;48.48;25.95;;;;;;;2.00;65.87;99322.03;1643296;86;21612;-58
2021/04/04 04:05:18;;;;;;;51.85;25.40;;;;;;;2.07;66.04;99318.48;1646454;85;22082;-57
2021/04/04 04:07:46;;;;;;;50.48;24.23;;;;;;;2.18;66.01;99317.05;1643956;85;21623;-58
2021/04/04 04:10:15;;;;;;;46.33;24.60;;;;;;;2.24;66.11;99324.33;1643647;86;21235;-59
2021/04/04 04:12:44;;;;;;;43.25;23.87;;;;;;;2.34;66.04;99327.64;1643871;86;21673;-58
2021/04/04 04:15:16;;;;;;;41.05;21.90;;;;;;;2.40;66.17;99326.25;1641699;85;21622;-58
2021/04/04 04:17:46;;;;;;;47.43;23.00;;;;;;;2.47;66.12;99329.17;1643790;86;22120;-59
2021/04/04 04:20:14;;;;;;;39.63;23.27;;;;;;;2.53;66.10;99329.07;1643737;86;21706;-59
2021/04/04 04:22:42;;;;;;;41.65;20.65;;;;;;;2.58;66.17;99334.62;1643756;86;21633;-59
2021/04/04 04:25:10;;;;;;;41.18;22.93;;;;;;;2.61;66.36;99336.73;1646910;85;21710;-62
2021/04/04 04:27:39;;;;;;;42.75;22.25;;;;;;;2.63;66.34;99334.97;1644358;85;21574;-59
2021/04/04 04:30:21;;;;;;;43.92;21.90;;;;;;;2.73;66.88;99342.17;1648700;83;21971;-59
2021/04/04 04:33:02;;;;;;;37.13;21.77;;;;;;;2.95;66.99;99347.04;1626647;84;21569;-58
2021/04/04 04:35:31;;;;;;;43.25;22.90;;;;;;;3.01;66.94;99349.08;1665562;83;21569;-58
2021/04/04 04:38:00;;;;;;;45.60;23.67;;;;;;;3.05;66.97;99345.98;1666484;83;21648;-58
2021/04/04 04:40:28;;;;;;;40.08;22.42;;;;;;;3.12;66.92;99347.16;1663739;85;21881;-59
2021/04/04 04:42:57;;;;;;;44.05;21.65;;;;;;;3.20;66.83;99353.96;1666276;85;22122;-58
2021/04/04 04:45:30;;;;;;;36.15;21.15;;;;;;;3.30;66.75;99352.48;1666780;83;21679;-59
2021/04/04 04:47:59;;;;;;;36.17;20.50;;;;;;;3.34;66.59;99356.34;1665614;84;21568;-58
2021/04/04 04:50:27;;;;;;;33.28;20.55;;;;;;;3.38;66.84;99356.69;1629472;85;21667;-59
2021/04/04 04:52:59;;;;;;;36.03;19.30;;;;;;;3.44;66.94;99362.63;1664954;84;22019;-61
2021/04/04 04:55:28;;;;;;;39.60;19.98;;;;;;;3.51;66.80;99354.28;1624824;85;22115;-59
2021/04/04 04:57:56;;;;;;;34.33;17.92;;;;;;;3.53;66.68;99355.56;1630920;86;21256;-59
2021/04/04 05:00:23;;;;;;;36.23;18.85;;;;;;;3.57;66.52;99362.41;1671084;83;21672;-58
2021/04/04 05:02:51;;;;;;;30.15;17.82;;;;;;;3.53;66.49;99360.30;1666095;84;21602;-58
2021/04/04 05:05:20;;;;;;;36.68;17.80;;;;;;;3.50;66.63;99359.05;1665863;84;21711;-59
2021/04/04 05:07:48;;;;;;;32.28;17.42;;;;;;;3.47;66.68;99359.98;1667861;83;21766;-59
2021/04/04 05:10:16;;;;;;;30.27;16.50;;;;;;;3.43;66.99;99364.83;1673383;83;21586;-58
2021/04/04 05:12:59;;;;;;;33.10;16.70;;;;;;;3.39;67.15;99365.77;1666384;85;21269;-61
2021/04/04 05:15:27;;;;;;;26.05;14.53;;;;;;;3.44;67.82;99363.92;1613692;84;21190;-56
2021/04/04 05:17:55;;;;;;;23.85;13.65;;;;;;;3.55;67.79;99361.58;1673069;83;21079;-56
2021/04/04 05:20:22;;;;;;;23.95;13.50;;;;;;;3.53;67.76;99363.36;1665592;84;21981;-54
2021/04/04 05:22:50;;;;;;;25.62;13.50;;;;;;;3.53;67.75;99369.41;1666699;84;21702;-65
2021/04/04 05:25:18;;;;;;;23.60;12.90;;;;;;;3.57;67.65;99375.41;1665924;85;21549;-57
2021/04/04 05:27:45;;;;;;;19.52;13.28;;;;;;;3.60;67.50;99378.81;1668971;83;28706;-55
2021/04/04 05:30:14;;;;;;;24.25;12.37;;;;;;;3.60;67.78;99380.11;1670111;83;21670;-58
2021/04/04 05:32:46;;;;;;;21.10;12.80;;;;;;;3.58;68.24;99379.70;1666121;84;22117;-58
2021/04/04 05:35:21;;;;;;;17.42;11.60;;;;;;;3.58;68.54;99382.30;1665853;85;21191;-69
2021/04/04 05:37:54;;;;;;;23.35;12.37;;;;;;;3.65;68.06;99386.05;1665894;84;21257;-63
2021/04/04 05:40:27;;;;;;;20.82;12.85;;;;;;;3.74;68.23;99390.23;1668287;83;21655;-64
2021/04/04 05:43:00;;;;;;;23.83;11.38;;;;;;;3.84;68.41;99393.52;1666197;84;21671;-65
2021/04/04 05:45:48;;;;;;;20.15;11.93;;;;;;;4.01;68.62;99383.66;1672273;84;22072;-69
2021/04/04 05:48:37;;;;;;;21.05;11.45;;;;;;;4.27;68.41;99386.14;1663615;84;21647;-63
2021/04/04 05:53:54;;;;;;;21.80;10.98;;;;;;;4.55;67.70;99381.19;1789710;77;22677;-63
2021/04/04 05:57:40;;;;;;;18.67;11.00;;;;;;;4.58;67.30;99381.13;1754819;78;21627;-62
2021/04/04 06:00:33;;;;;;;18.40;11.05;;;;;;;4.69;66.72;99383.50;1754480;79;21976;-65
2021/04/04 06:03:18;;;;;;;22.48;11.43;;;;;;;4.76;66.83;99385.05;1691334;82;21605;-61
2021/04/04 06:06:14;;;;;;;18.98;10.23;;;;;;;4.87;66.75;99390.02;1720129;80;21584;-63
2021/04/04 06:09:25;;;;;;;18.52;9.83;;;;;;;4.98;66.63;99391.08;1723536;81;21579;-60
2021/04/04 06:12:04;;;;;;;18.15;10.00;;;;;;;5.11;66.34;99400.77;1728867;81;21668;-60
2021/04/04 06:15:11;;;;;;;12.58;9.38;;;;;;;5.18;66.36;99393.17;1723552;81;22038;-61
2021/04/04 06:18:25;;;;;;;19.60;9.60;;;;;;;5.29;66.13;99396.83;1691524;82;21646;-62
2021/04/04 06:21:32;;;;;;;13.70;8.53;;;;;;;5.42;65.83;99404.29;1676716;83;21645;-62
2021/04/04 06:24:19;;;;;;;14.73;8.25;;;;;;;5.46;66.11;99405.06;1676095;83;21672;-61
2021/04/04 06:27:09;;;;;;;18.32;9.15;;;;;;;5.57;66.67;99415.23;1692150;82;21689;-62
2021/04/04 06:33:23;;;;;;;11.15;7.10;;;;;;;5.81;66.58;99412.42;1706261;83;21609;-62
2021/04/04 06:36:16;;;;;;;15.83;7.33;;;;;;;5.97;65.96;99411.58;1708502;81;21674;-63
2021/04/04 06:39:25;;;;;;;14.30;7.60;;;;;;;5.97;65.87;99411.58;1705579;81;21244;-60
2021/04/04 06:42:01;;;;;;;10.53;6.85;;;;;;;6.07;65.58;99407.83;1708382;81;21581;-62
2021/04/04 06:44:51;;;;;;;8.98;6.08;;;;;;;6.08;65.41;99410.83;1707533;81;21925;-62
2021/04/04 06:47:47;;;;;;;10.03;5.72;;;;;;;6.14;65.24;99406.77;1683840;84;21687;-63
2021/04/04 06:50:20;;;;;;;10.98;5.78;;;;;;;6.18;64.98;99408.84;1693671;82;21513;-62
2021/04/04 06:53:21;;;;;;;11.97;5.03;;;;;;;6.16;64.98;99415.41;1692523;84;21702;-63
2021/04/04 06:56:11;;;;;;;9.05;5.10;;;;;;;6.15;65.04;99416.29;1710807;82;21205;-63
2021/04/04 06:59:05;;;;;;;7.70;4.72;;;;;;;6.20;64.53;99418.33;1657639;84;22077;-62
2021/04/04 07:02:01;;;;;;;4.55;4.08;;;;;;;6.29;64.28;99420.26;1693750;84;21614;-62
2021/04/04 07:04:53;;;;;;;6.30;3.70;;;;;;;6.43;63.46;99418.95;1687066;83;21628;-62
2021/04/04 07:07:56;;;;;;;6.20;4.65;;;;;;;6.63;63.17;99412.30;1653348;84;21667;-62
2021/04/04 07:10:51;;;;;;;7.17;4.37;;;;;;;6.85;62.30;99417.70;1665085;84;21663;-61
2021/04/04 07:13:40;;;;;;;6.40;4.58;;;;;;;6.90;62.33;99418.42;1692318;82;21792;-61
2021/04/04 07:16:43;;;;;;;9.35;5.40;;;;;;;7.04;61.85;99426.28;1677693;83;21617;-61
2021/04/04 07:19:51;;;;;;;6.97;4.03;;;;;;;7.20;61.84;99425.73;1701705;81;21552;-61
2021/04/04 07:22:27;;;;;;;6.47;4.30;;;;;;;7.27;60.87;99426.41;1702301;82;21698;-63
2021/04/04 07:25:37;;;;;;;4.53;3.52;;;;;;;7.33;60.93;99430.13;1701364;82;21630;-60
2021/04/04 07:28:34;;;;;;;7.50;3.90;;;;;;;7.34;59.69;99431.81;1680400;82;22053;-58
2021/04/04 07:31:10;;;;;;;3.87;3.17;;;;;;;7.35;60.30;99430.92;1596080;87;21623;-62
2021/04/04 07:34:17;;;;;;;6.03;3.60;;;;;;;7.47;59.64;99428.81;1594838;87;21099;-63
2021/04/04 07:37:12;;;;;;;3.77;3.33;;;;;;;7.55;59.31;99431.58;1594582;87;21846;-58
2021/04/04 07:40:04;;;;;;;4.10;3.25;;;;;;;7.69;59.06;99440.72;1592755;89;21797;-59
2021/04/04 07:42:47;;;;;;;5.62;3.77;;;;;;;7.78;58.25;99437.79;1654146;84;22128;-57
2021/04/04 07:48:49;;;;;;;4.87;3.58;;;;;;;7.96;58.39;99439.73;1804872;76;22906;-61
2021/04/04 07:51:20;;;;;;;3.52;3.10;;;;;;;7.98;58.56;99444.46;1699968;81;21609;-58
2021/04/04 07:53:57;;;;;;;3.80;3.47;;;;;;;8.05;57.99;99443.80;1726080;81;22240;-58
2021/04/04 07:56:45;;;;;;;3.70;3.30;;;;;;;8.08;58.12;99442.83;1727066;82;21653;-58
2021/04/04 07:59:19;;;;;;;7.12;3.60;;;;;;;8.09;57.67;99443.25;1709074;82;21224;-60
2021/04/04 08:02:21;;;;;;;4.58;3.52;;;;;;;8.07;57.90;99443.30;1726165;81;21642;-58
2021/04/04 08:04:54;;;;;;;;;;;;;;;8.08;57.81;99446.33;1705240;82;21666;-58
2021/04/04 08:07:52;;;;;;;4.37;3.25;;;;;;;8.10;57.58;99450.17;1729877;81;22201;-58
2021/04/04 08:10:55;;;;;;;4.58;3.83;;;;;;;8.08;57.29;99446.33;1718573;82;21631;-58
2021/04/04 08:13:51;;;;;;;4.97;3.42;;;;;;;8.08;57.40;99445.02;1720818;82;21546;-58
2021/04/04 08:16:29;;;;;;;4.70;3.62;;;;;;;8.11;57.28;99441.42;1722322;81;21115;-58
2021/04/04 08:18:56;;;;;;;6.47;3.52;;;;;;;8.22;56.91;99436.65;1723494;82;21619;-58
2021/04/04 08:21:38;;;;;;;4.05;3.25;;;;;;;8.24;57.01;99437.45;1720116;82;22067;-59
2021/04/04 08:24:42;;;;;;;3.80;3.50;;;;;;;8.38;56.43;99435.19;1818398;76;23145;-59
2021/04/04 08:27:28;;;;;;;3.58;3.27;;;;;;;8.32;55.87;99437.16;1784862;77;21701;-60
2021/04/04 08:30:17;;;;;;;4.47;3.47;;;;;;;8.13;55.01;99436.98;1780989;77;22093;-59
2021/04/04 08:32:52;;;;;;;4.47;2.98;;;;;;;8.01;56.02;99436.13;1778710;77;21110;-58
2021/04/04 08:35:30;;;;;;;5.05;2.83;;;;;;;7.95;56.25;99435.89;1798441;77;21203;-58
2021/04/04 08:38:15;;;;;;;4.47;3.25;;;;;;;7.96;55.85;99430.58;1781557;79;21883;-62
2021/04/04 08:40:45;;;;;;;3.85;3.00;;;;;;;8.08;55.99;99431.05;1783984;77;21673;-58
2021/04/04 08:43:15;;;;;;;4.30;3.47;;;;;;;8.25;55.73;99427.81;1775371;77;23331;-58
2021/04/04 08:46:02;;;;;;;4.30;3.12;;;;;;;8.44;55.27;99423.66;1788384;77;21653;-58
2021/04/04 08:48:32;;;;;;;5.83;3.35;;;;;;;8.63;55.05;99415.10;1785407;77;21551;-59
2021/04/04 08:51:24;;;;;;;5.15;3.08;;;;;;;8.95;54.75;99412.06;1776269;79;21639;-58
2021/04/04 08:53:54;;;;;;;4.70;3.10;;;;;;;9.31;54.04;99412.80;1788287;78;21626;-59
2021/04/04 08:56:24;;;;;;;3.42;2.90;;;;;;;9.67;53.11;99406.91;1706791;81;21182;-60
2021/04/04 08:58:56;;;;;;;3.02;2.47;;;;;;;10.00;52.32;99405.07;1736318;80;21827;-60
2021/04/04 09:01:37;;;;;;;4.47;2.72;;;;;;;10.27;50.75;99406.06;1747901;80;21595;-59
2021/04/04 09:04:10;;;;;;;2.67;2.42;;;;;;;10.49;50.92;99398.06;1749011;80;21173;-59
2021/04/04 09:06:44;;;;;;;3.37;2.70;;;;;;;10.54;50.09;99388.66;1758902;80;21595;-60
2021/04/04 09:09:25;;;;;;;3.80;3.20;;;;;;;10.52;49.00;99397.93;1759336;80;22098;-59
2021/04/04 09:11:58;;;;;;;3.87;2.75;;;;;;;10.33;49.05;99400.55;1745789;80;21552;-59
2021/04/04 09:14:26;;;;;;;6.22;3.20;;;;;;;10.23;48.77;99404.03;1761291;79;21556;-59
2021/04/04 09:16:55;;;;;;;3.47;2.83;;;;;;;10.02;48.92;99401.03;1751711;80;21186;-59
2021/04/04 09:19:37;;;;;;;4.10;3.08;;;;;;;9.94;48.38;99405.31;1742063;80;21611;-60
2021/04/04 09:22:15;;;;;;;3.77;3.30;;;;;;;9.82;49.31;99409.34;1759478;80;22150;-60
2021/04/04 09:24:52;;;;;;;6.33;3.10;;;;;;;9.73;49.64;99409.73;1759983;80;21701;-60
2021/04/04 09:27:26;;;;;;;5.00;3.85;;;;;;;9.66;50.02;99404.34;1758380;80;21563;-59
2021/04/04 09:29:56;;;;;;;5.40;3.45;;;;;;;9.40;50.96;99402.82;1738431;80;21628;-60
2021/04/04 09:32:42;;;;;;;4.33;3.42;;;;;;;9.26;51.88;99406.87;1755001;80;21596;-59
2021/04/04 09:35:38;;;;;;;6.92;3.30;;;;;;;9.08;52.20;99412.42;1719948;82;21796;-59
2021/04/04 09:38:15;;;;;;;9.40;4.20;;;;;;;8.90;52.79;99401.36;1721255;81;21556;-59
2021/04/04 09:40:43;;;;;;;4.60;3.05;;;;;;;8.69;53.25;99404.38;1737148;80;21601;-57
2021/04/04 09:43:16;;;;;;;5.12;4.00;;;;;;;8.64;53.55;99416.80;1693763;81;21730;-57
2021/04/04 09:45:47;;;;;;;7.17;3.98;;;;;;;8.52;54.03;99421.59;1718617;81;21646;-60
2021/04/04 09:48:24;;;;;;;9.15;4.55;;;;;;;8.37;55.03;99425.60;1691157;80;22054;-59
2021/04/04 09:51:13;;;;;;;7.42;4.80;;;;;;;8.24;56.48;99432.67;1706255;82;21211;-61
2021/04/04 09:53:51;;;;;;;6.95;4.90;;;;;;;7.99;57.85;99434.41;1737697;80;21655;-62
2021/04/04 09:56:31;;;;;;;6.33;4.92;;;;;;;7.62;59.59;99436.13;1714985;81;21670;-59
2021/04/04 09:59:01;;;;;;;5.37;4.72;;;;;;;7.44;60.61;99445.91;1723580;81;21543;-61
2021/04/04 10:01:32;;;;;;;5.50;5.05;;;;;;;7.40;61.68;99443.84;1700712;82;22099;-59
2021/04/04 10:04:05;;;;;;;8.85;5.83;;;;;;;7.37;62.79;99442.19;1714343;81;21197;-59
2021/04/04 10:06:35;;;;;;;6.33;4.87;;;;;;;7.34;63.86;99444.89;1735441;80;21563;-59
2021/04/04 10:09:08;;;;;;;5.60;5.00;;;;;;;7.34;64.34;99445.35;1711471;81;21594;-59
2021/04/04 10:11:38;;;;;;;8.80;4.53;;;;;;;7.50;66.71;99441.80;1738565;80;21583;-60
2021/04/04 10:14:10;;;;;;;5.92;5.12;;;;;;;7.80;65.93;99447.28;1711476;81;22102;-57
2021/04/04 10:16:41;;;;;;;5.58;4.83;;;;;;;7.95;65.26;99448.98;1729789;80;21613;-59
2021/04/04 10:19:17;;;;;;;5.37;4.85;;;;;;;8.05;65.25;99450.35;1704455;82;21710;-60
2021/04/04 10:21:59;;;;;;;6.03;5.03;;;;;;;8.20;64.97;99445.02;1725066;80;21550;-63
2021/04/04 10:24:36;;;;;;;5.45;4.87;;;;;;;8.33;64.95;99444.13;1714756;81;21694;-60
2021/04/04 10:27:28;;;;;;;6.08;5.47;;;;;;;8.48;64.01;99438.81;1744769;80;22067;-59
2021/04/04 10:30:17;;;;;;;6.90;5.25;;;;;;;8.62;63.49;99435.19;1705387;82;21686;-60
2021/04/04 10:32:49;;;;;;;9.00;6.85;;;;;;;8.72;62.39;99431.33;1725670;81;21626;-58
2021/04/04 10:35:34;;;;;;;8.68;7.10;;;;;;;8.86;62.22;99441.27;1733758;80;21630;-62
2021/04/04 10:38:06;;;;;;;9.93;6.78;;;;;;;8.95;61.76;99434.81;1688635;82;21716;-59
2021/04/04 10:40:48;;;;;;;8.78;6.78;;;;;;;9.15;62.01;99427.44;1724863;81;22178;-59
2021/04/04 10:43:21;;;;;;;9.68;7.17;;;;;;;9.40;61.54;99427.75;1736587;80;21586;-59
2021/04/04 10:46:10;;;;;;;8.13;7.17;;;;;;;9.62;60.08;99423.31;1743924;80;21556;-59
2021/04/04 10:48:41;;;;;;;8.83;6.62;;;;;;;9.83;59.85;99423.31;1741820;80;21676;-60
2021/04/04 10:51:12;;;;;;;12.07;6.40;;;;;;;10.03;59.48;99429.87;1747791;80;21562;-58
2021/04/04 10:53:39;;;;;;;8.88;6.78;;;;;;;10.07;59.56;99418.30;1736396;80;22074;-59
2021/04/04 10:56:10;;;;;;;9.00;7.17;;;;;;;10.08;59.12;99416.08;1739854;80;21684;-60
2021/04/04 10:58:39;;;;;;;8.25;6.83;;;;;;;10.02;59.18;99421.61;1733530;80;21670;-61
2021/04/04 11:01:08;;;;;;;7.92;6.78;;;;;;;9.91;58.28;99422.08;1732896;80;21607;-59
2021/04/04 11:03:39;;;;;;;9.80;5.87;;;;;;;9.71;57.09;99422.92;1730601;80;21575;-64
2021/04/04 11:06:10;;;;;;;6.40;5.80;;;;;;;9.54;57.61;99423.64;1740417;80;21847;-59
2021/04/04 11:08:40;;;;;;;8.63;6.28;;;;;;;9.39;57.60;99422.97;1733601;80;21223;-59
2021/04/04 11:11:11;;;;;;;10.32;5.90;;;;;;;9.24;58.01;99421.83;1738344;80;21646;-60
2021/04/04 11:13:43;;;;;;;6.55;5.95;;;;;;;9.06;57.64;99417.31;1716553;80;21559;-59
2021/04/04 11:16:12;;;;;;;10.85;6.00;;;;;;;8.96;58.54;99422.08;1727477;80;21157;-60
2021/04/04 11:18:50;;;;;;;5.53;5.03;;;;;;;8.86;58.04;99418.97;1735213;80;22154;-61
2021/04/04 11:21:38;;;;;;;4.95;4.20;;;;;;;8.82;58.59;99420.02;1731785;80;21618;-59
2021/04/04 11:24:15;;;;;;;3.17;2.98;;;;;;;8.79;58.98;99416.66;1726876;80;21524;-61
2021/04/04 11:26:53;;;;;;;3.47;3.05;;;;;;;8.80;58.55;99415.73;1729893;79;21626;-59
2021/04/04 11:29:29;;;;;;;3.62;3.33;;;;;;;8.84;57.89;99413.41;1733380;80;21654;-62
2021/04/04 11:32:25;;;;;;;4.20;3.17;;;;;;;8.85;56.65;99403.30;1718167;80;21885;-59
2021/04/04 11:35:03;;;;;;;3.12;2.87;;;;;;;8.86;56.36;99399.31;1729828;80;21626;-59
2021/04/04 11:37:39;;;;;;;3.90;3.50;;;;;;;8.91;54.65;99396.06;1727015;80;21646;-60
2021/04/04 11:40:22;;;;;;;3.70;3.35;;;;;;;8.93;55.39;99389.45;1697094;81;21648;-58
2021/04/04 11:43:25;;;;;;;3.30;3.05;;;;;;;9.07;54.22;99386.26;1735900;81;21570;-62
2021/04/04 11:45:53;;;;;;;2.90;2.70;;;;;;;9.22;53.52;99377.75;1732289;81;22377;-58
2021/04/04 11:48:34;;;;;;;12.37;11.03;;;;;;;9.36;51.87;99386.35;1729308;80;21157;-58
2021/04/04 11:51:18;;;;;;;5.28;4.78;;;;;;;9.51;51.35;99380.92;1724354;81;21555;-59
2021/04/04 11:53:50;;;;;;;4.97;3.42;;;;;;;9.72;49.67;99380.01;1732766;81;21673;-60
2021/04/04 11:56:44;;;;;;;2.80;2.60;;;;;;;9.99;49.69;99374.45;1728650;80;21765;-60
2021/04/04 11:59:18;;;;;;;3.35;2.98;;;;;;;10.20;47.36;99371.79;1734306;81;23028;-59
2021/04/04 12:01:55;;;;;;;3.67;2.85;;;;;;;10.14;48.32;99361.09;1716369;81;21698;-60
2021/04/04 12:04:31;;;;;;;3.80;3.50;;;;;;;10.08;48.89;99374.05;1706905;82;21579;-58
2021/04/04 12:07:14;;;;;;;5.05;4.55;;;;;;;10.02;49.44;99368.20;1742706;80;21631;-58
2021/04/04 12:09:45;;;;;;;5.50;5.00;;;;;;;9.81;50.84;99367.39;1714091;82;23522;-58
2021/04/04 12:12:16;;;;;;;13.18;10.58;;;;;;;9.60;52.21;99375.74;1730158;81;21647;-60
2021/04/04 12:15:15;;;;;;;8.80;7.97;;;;;;;9.26;53.41;99379.80;1711711;82;21573;-58
2021/04/04 12:17:49;;;;;;;15.88;11.48;;;;;;;8.87;54.01;99383.11;1700716;82;21590;-61
2021/04/04 12:20:23;;;;;;;20.72;16.15;;;;;;;8.61;55.07;99388.95;1676373;83;21563;-60
2021/04/04 12:22:51;;;;;;;7.92;6.67;;;;;;;8.49;55.58;99391.56;1704843;82;21639;-59
2021/04/04 12:25:21;;;;;;;;;;;;;;;8.44;56.66;99392.65;1703852;82;22059;-60
2021/04/04 12:27:52;;;;;;;4.72;4.17;;;;;;;8.33;56.84;99400.44;1701253;82;20482;-59
2021/04/04 12:30:35;;;;;;;4.45;4.05;;;;;;;8.12;57.28;99397.31;1665986;84;21586;-69